Terminal Aerodrome Forecast
Issued by NWS

Home | Current Version | Previous Version | Text Only | Print | Product List | Glossary On
Versions: 1 2 3 4 5 6 7 8 9 10 11 12 13 14 15
000
FTUS45 KRIW 231720
TAFRKS
TAF
KRKS 231720Z 2318/2418 21011KT P6SM SCT090 BKN200
     FM232200 26017G28KT P6SM VCTS SCT050 BKN070CB
     FM240100 25013KT P6SM VCSH SCT040 BKN080
     FM240300 VRB15G25KT 6SM -SHRA SCT025 BKN035
     FM240700 26008KT P6SM FEW025 BKN110
     FM241700 24011G18KT P6SM BKN100=

USA.gov is the U.S. government's official web portal to all federal, state and local government web resources and services.